Time;durP1;ratioP1;P1;durP2;ratioP2;P2;SDS_P1;SDS_P2;PMS_P1;PMS_P2;Temp;Humidity;BMP_temperature;BMP_pressure;BME280_temperature;BME280_humidity;BME280_pressure;Samples;Min_cycle;Max_cycle;Signal;HPM_P1;HPM_P2
2022/05/13 00:01:32;;;;;;;32.92;9.05;;;;;;;15.56;nan;95247.06;5049553;28;20041;-87
2022/05/13 00:03:59;;;;;;;19.10;9.07;;;;;;;15.50;nan;95231.38;5072252;28;20032;-87
2022/05/13 00:06:24;;;;;;;26.33;9.38;;;;;;;17.11;nan;95498.94;5054010;28;20059;-87
2022/05/13 00:08:50;;;;;;;17.95;8.32;;;;;;;13.95;nan;95003.88;5035265;28;20778;-87
2022/05/13 00:11:16;;;;;;;18.30;8.30;;;;;;;14.67;nan;95113.31;5051583;28;20041;-87
2022/05/13 00:13:41;;;;;;;19.70;8.82;;;;;;;16.77;nan;95438.69;5055208;28;20517;-87
2022/05/13 00:16:07;;;;;;;18.33;9.13;;;;;;;17.23;nan;95512.56;5066983;28;20059;-87
2022/05/13 00:18:33;;;;;;;16.25;7.95;;;;;;;17.00;nan;95455.53;5033680;28;20051;-87
2022/05/13 00:20:59;;;;;;;18.20;8.70;;;;;;;16.91;nan;95430.56;5059454;28;20032;-87
2022/05/13 00:23:25;;;;;;;17.58;7.80;;;;;;;15.53;nan;95262.88;5043482;28;20029;-87
2022/05/13 00:25:51;;;;;;;21.83;7.93;;;;;;;14.97;nan;95224.00;5034510;28;20041;-87
2022/05/13 00:28:16;;;;;;;20.27;8.00;;;;;;;14.52;nan;95140.34;5046761;28;20124;-87
2022/05/13 00:30:45;;;;;;;18.45;7.60;;;;;;;17.58;nan;95567.16;5053342;28;20611;-87
2022/05/13 00:33:10;;;;;;;19.55;7.55;;;;;;;17.36;nan;95525.09;5050847;28;20041;-87
2022/05/13 00:35:37;;;;;;;21.08;7.78;;;;;;;15.78;nan;95265.78;5067882;28;20048;-87
2022/05/13 00:38:03;;;;;;;17.60;8.25;;;;;;;17.63;nan;95580.44;5070129;28;20131;-87
2022/05/13 00:40:29;;;;;;;15.10;8.77;;;;;;;14.77;nan;95217.22;5052161;28;20132;-87
2022/05/13 00:43:00;;;;;;;18.30;8.25;;;;;;;16.17;nan;95430.97;5069984;28;20064;-87
2022/05/13 00:45:27;;;;;;;21.40;8.27;;;;;;;16.67;nan;95497.06;5072006;28;20036;-87
2022/05/13 00:47:53;;;;;;;17.33;8.38;;;;;;;17.17;nan;95583.44;5063938;28;20048;-87
2022/05/13 00:50:21;;;;;;;16.80;8.35;;;;;;;15.94;nan;95455.31;5057265;28;20082;-87
2022/05/13 00:52:50;;;;;;;17.63;7.28;;;;;;;16.23;nan;95462.97;5061023;28;20565;-87
2022/05/13 00:55:28;;;;;;;18.92;7.63;;;;;;;16.62;nan;95522.06;5060259;28;20041;-87
2022/05/13 00:57:55;;;;;;;29.77;8.20;;;;;;;16.05;nan;95432.59;5069516;28;20044;-87
2022/05/13 01:00:21;;;;;;;16.67;7.13;;;;;;;14.45;nan;95169.31;5055150;28;20045;-87
2022/05/13 01:02:48;;;;;;;17.98;8.05;;;;;;;14.82;nan;95233.13;5067266;28;20052;-87
2022/05/13 01:05:15;;;;;;;15.18;6.75;;;;;;;17.03;nan;95572.78;5052992;28;20687;-87
2022/05/13 01:07:42;;;;;;;13.68;7.35;;;;;;;17.04;nan;95589.66;5050005;28;20541;-87
2022/05/13 01:10:15;;;;;;;14.07;7.57;;;;;;;15.54;nan;95350.00;5049607;28;20041;-87
2022/05/13 01:12:44;;;;;;;15.13;7.50;;;;;;;14.39;nan;95181.16;5053705;28;20490;-87
2022/05/13 01:15:13;;;;;;;15.48;7.60;;;;;;;12.41;nan;94942.22;5069279;28;20040;-87
2022/05/13 01:20:31;;;;;;;13.13;8.52;;;;;;;14.07;nan;95190.00;5062610;28;20060;-87
2022/05/13 01:23:02;;;;;;;16.08;7.72;;;;;;;14.94;nan;95369.63;5055965;28;20047;-87
2022/05/13 01:25:30;;;;;;;13.80;7.40;;;;;;;14.27;nan;95227.75;5066939;28;20549;-87
2022/05/13 01:28:15;;;;;;;15.13;7.25;;;;;;;14.88;nan;95378.00;5069061;28;20029;-87
2022/05/13 01:30:44;;;;;;;19.33;7.70;;;;;;;14.55;nan;95316.69;5067356;28;20426;-87
2022/05/13 01:33:10;;;;;;;17.42;7.43;;;;;;;13.99;nan;95207.47;5053004;28;20047;-87
2022/05/13 01:35:42;;;;;;;15.52;7.55;;;;;;;16.15;nan;95571.50;5065208;28;20495;-87
2022/05/13 01:38:08;;;;;;;17.25;7.95;;;;;;;15.47;nan;95453.84;5049363;28;20037;-87
2022/05/13 01:40:34;;;;;;;13.82;7.90;;;;;;;15.73;nan;95484.34;5049929;28;20079;-87
2022/05/13 01:42:59;;;;;;;12.88;7.03;;;;;;;13.94;nan;95206.78;5058919;28;20044;-87
2022/05/13 01:45:25;;;;;;;23.48;7.85;;;;;;;13.27;nan;95142.34;5071159;28;20039;-87
2022/05/13 01:47:50;;;;;;;10.65;7.22;;;;;;;12.45;nan;94983.09;5057709;28;20056;-87
2022/05/13 01:50:16;;;;;;;21.17;8.30;;;;;;;14.66;nan;95307.38;5048951;28;20049;-87
2022/05/13 01:52:41;;;;;;;15.15;7.78;;;;;;;15.50;nan;95487.97;5062599;28;20417;-87
2022/05/13 01:55:07;;;;;;;20.17;7.68;;;;;;;14.24;nan;95248.91;5067989;28;20112;-87
2022/05/13 01:57:33;;;;;;;17.95;8.80;;;;;;;15.58;nan;95490.78;5070606;28;20032;-87
2022/05/13 01:59:58;;;;;;;15.90;7.20;;;;;;;14.11;nan;95255.03;5067542;28;20040;-87
2022/05/13 02:02:24;;;;;;;12.57;7.13;;;;;;;15.85;nan;95490.00;5066007;28;20040;-87
2022/05/13 02:04:50;;;;;;;31.70;9.20;;;;;;;15.74;nan;95481.38;5054614;28;20039;-88
2022/05/13 02:07:16;;;;;;;20.08;8.27;;;;;;;16.30;nan;95552.47;5069505;28;20098;-87
2022/05/13 02:09:42;;;;;;;17.25;8.48;;;;;;;15.41;nan;95426.41;5068885;28;20078;-87
2022/05/13 02:12:08;;;;;;;22.70;8.57;;;;;;;15.61;nan;95492.09;5070652;28;20403;-87
2022/05/13 02:14:33;;;;;;;14.45;8.10;;;;;;;15.49;nan;95439.06;5069940;28;20072;-87
2022/05/13 02:16:59;;;;;;;14.65;8.07;;;;;;;15.80;nan;95472.16;5069478;28;20036;-87
2022/05/13 02:19:24;;;;;;;19.27;7.90;;;;;;;14.41;nan;95246.50;5070277;28;20036;-87
2022/05/13 02:21:50;;;;;;;21.05;7.63;;;;;;;15.35;nan;95415.03;5069625;28;20036;-87
2022/05/13 02:24:15;;;;;;;15.35;7.93;;;;;;;13.50;nan;95144.88;5056582;28;20040;-87
2022/05/13 02:26:41;;;;;;;17.65;7.43;;;;;;;16.16;nan;95573.09;5067967;28;20514;-87
2022/05/13 02:29:06;;;;;;;17.90;7.82;;;;;;;15.31;nan;95464.81;5066828;28;20041;-87
2022/05/13 02:31:31;;;;;;;14.52;7.72;;;;;;;13.80;nan;95249.41;5033577;28;20064;-88
2022/05/13 02:33:58;;;;;;;13.57;7.97;;;;;;;15.59;nan;95488.91;5049911;28;20161;-88
2022/05/13 02:36:24;;;;;;;16.13;7.80;;;;;;;15.71;nan;95507.94;5049325;28;20029;-87
2022/05/13 02:38:50;;;;;;;20.17;7.93;;;;;;;13.91;nan;95285.47;5048968;28;20072;-87
2022/05/13 02:41:15;;;;;;;18.90;7.60;;;;;;;15.26;nan;95549.59;5034394;28;20041;-87
2022/05/13 02:43:45;;;;;;;13.93;8.02;;;;;;;15.41;nan;95550.13;5065369;28;20052;-87
2022/05/13 02:46:13;;;;;;;21.08;7.93;;;;;;;11.13;nan;94912.31;5031090;28;20036;-88
2022/05/13 02:48:38;;;;;;;13.60;7.43;;;;;;;12.98;nan;95235.66;5057204;28;20040;-87
2022/05/13 02:51:04;;;;;;;21.25;8.55;;;;;;;14.64;nan;95500.97;5041001;28;20683;-87
2022/05/13 02:53:30;;;;;;;15.43;8.98;;;;;;;13.48;nan;95322.09;5043917;28;20119;-87
2022/05/13 02:55:56;;;;;;;14.32;7.95;;;;;;;14.88;nan;95519.53;5072075;28;20044;-88
2022/05/13 02:58:21;;;;;;;14.70;8.45;;;;;;;14.36;nan;95413.81;5041180;28;20150;-87
2022/05/13 03:00:46;;;;;;;15.07;7.25;;;;;;;14.77;nan;95459.38;5052410;28;20161;-87
2022/05/13 03:03:12;;;;;;;14.65;7.95;;;;;;;15.45;nan;95590.44;5034218;28;20435;-87
2022/05/13 03:05:38;;;;;;;21.33;8.55;;;;;;;15.49;nan;95582.59;5034321;28;20064;-87
2022/05/13 03:08:06;;;;;;;21.00;7.97;;;;;;;13.91;nan;95376.09;5034220;28;20045;-87
2022/05/13 03:10:33;;;;;;;17.85;7.97;;;;;;;13.81;nan;95410.91;5052351;28;20045;-87
2022/05/13 03:13:00;;;;;;;15.10;7.85;;;;;;;15.20;nan;95582.84;5033915;28;20068;-87
2022/05/13 03:15:26;;;;;;;22.13;9.20;;;;;;;14.49;nan;95482.53;5055537;28;20036;-87
2022/05/13 03:17:52;;;;;;;13.93;8.10;;;;;;;15.06;nan;95588.94;5067411;28;20033;-87
2022/05/13 03:20:20;;;;;;;21.85;8.07;;;;;;;15.25;nan;95583.56;5033853;28;20106;-87
2022/05/13 03:22:47;;;;;;;14.82;8.30;;;;;;;15.30;nan;95590.69;5033707;28;20105;-87
2022/05/13 03:25:13;;;;;;;14.60;7.85;;;;;;;15.08;nan;95551.25;5033882;28;20112;-87
2022/05/13 03:27:39;;;;;;;21.15;8.73;;;;;;;14.77;nan;95595.53;5051850;28;20064;-88
2022/05/13 03:30:08;;;;;;;18.52;8.23;;;;;;;13.59;nan;95328.84;5023043;28;1159884;-88
2022/05/13 03:32:33;;;;;;;16.70;7.90;;;;;;;15.56;nan;95615.16;5073063;28;20147;-88
2022/05/13 03:34:59;;;;;;;24.33;9.38;;;;;;;14.60;nan;95451.91;5054610;28;20464;-87
2022/05/13 03:37:24;;;;;;;27.80;8.90;;;;;;;13.41;nan;95271.84;5065945;28;20051;-87
2022/05/13 03:39:50;;;;;;;29.33;9.50;;;;;;;13.36;nan;95282.56;5055302;28;20045;-87
2022/05/13 03:42:15;;;;;;;18.40;9.25;;;;;;;15.40;nan;95598.56;5068210;28;20043;-87
2022/05/13 03:44:42;;;;;;;28.05;9.60;;;;;;;13.24;nan;95311.50;5050903;28;20492;-87
2022/05/13 03:47:07;;;;;;;34.53;9.63;;;;;;;15.41;nan;95598.25;5051663;28;20067;-87
2022/05/13 03:49:33;;;;;;;16.58;9.30;;;;;;;15.43;nan;95581.91;5071461;28;20414;-87
2022/05/13 03:51:59;;;;;;;23.00;9.60;;;;;;;15.21;nan;95536.34;5054391;28;20495;-87
2022/05/13 03:54:24;;;;;;;23.65;8.13;;;;;;;14.61;nan;95442.81;5072200;28;20115;-87
2022/05/13 03:56:50;;;;;;;21.40;9.35;;;;;;;15.65;nan;95605.34;5054426;28;20043;-88
2022/05/13 03:59:15;;;;;;;30.08;9.05;;;;;;;15.19;nan;95525.94;5072199;28;20034;-87
2022/05/13 04:01:41;;;;;;;28.48;9.23;;;;;;;15.51;nan;95567.06;5071150;28;20051;-88
2022/05/13 04:04:07;;;;;;;28.42;9.90;;;;;;;15.26;nan;95529.03;5055109;28;20032;-88
2022/05/13 04:09:17;;;;;;;27.27;10.15;;;;;;;15.56;nan;95557.13;5072977;28;20142;-88
2022/05/13 04:16:04;;;;;;;20.77;9.48;;;;;;;15.52;nan;95549.97;5070860;28;20076;-88
2022/05/13 04:17:28;;;;;;;19.35;9.38;;;;;;;15.72;nan;95558.41;5023496;28;20055;-88
2022/05/13 04:19:55;;;;;;;24.27;10.38;;;;;;;15.93;nan;95584.78;5056106;28;20418;-86
2022/05/13 04:22:24;;;;;;;29.90;8.07;;;;;;;15.80;nan;95570.31;5052448;28;20068;-87
2022/05/13 04:24:52;;;;;;;25.48;9.30;;;;;;;15.81;nan;95550.50;5073286;28;20291;-86
2022/05/13 04:27:18;;;;;;;14.95;8.55;;;;;;;16.35;nan;95615.78;5053912;28;20056;-86
2022/05/13 04:29:44;;;;;;;25.63;9.02;;;;;;;13.85;nan;95267.97;5075120;28;20053;-88
2022/05/13 04:32:09;;;;;;;17.98;8.40;;;;;;;15.55;nan;95491.41;5058844;28;20129;-86
2022/05/13 04:34:35;;;;;;;22.25;8.82;;;;;;;13.50;nan;95166.19;5041768;28;20043;-87
2022/05/13 04:37:02;;;;;;;17.30;8.15;;;;;;;13.97;nan;95230.97;5037164;28;20044;-88
2022/05/13 04:39:28;;;;;;;18.42;8.32;;;;;;;15.14;nan;95405.81;5038518;28;20052;-85
2022/05/13 04:44:41;;;;;;;24.77;9.45;;;;;;;15.74;nan;95468.00;5047797;28;20128;-85
2022/05/13 04:48:15;;;;;;;19.25;8.50;;;;;;;15.23;nan;95382.69;5036891;28;20648;-86
2022/05/13 04:49:53;;;;;;;17.83;8.52;;;;;;;15.24;nan;95376.25;5046015;28;20036;-86
2022/05/13 04:52:20;;;;;;;18.63;9.18;;;;;;;17.03;nan;95705.97;5039020;28;20041;-86
2022/05/13 04:54:45;;;;;;;27.77;9.18;;;;;;;16.87;nan;95644.69;5043510;28;20036;-85
2022/05/13 04:57:11;;;;;;;14.68;9.13;;;;;;;14.96;nan;95340.72;5035714;28;20036;-86
2022/05/13 04:59:39;;;;;;;20.63;8.85;;;;;;;12.04;nan;94916.47;5041434;28;20039;-86
2022/05/13 05:02:08;;;;;;;18.65;9.68;;;;;;;12.91;nan;95016.94;5059347;28;20036;-87
2022/05/13 05:04:36;;;;;;;19.20;8.95;;;;;;;13.90;nan;95166.56;5045976;28;20363;-87
2022/05/13 05:07:05;;;;;;;18.95;9.93;;;;;;;12.78;nan;94954.63;5029425;28;20068;-86
2022/05/13 05:09:31;;;;;;;26.63;10.10;;;;;;;13.09;nan;94989.50;5040707;28;20102;-86
2022/05/13 05:12:04;;;;;;;19.05;10.20;;;;;;;14.74;nan;95299.78;5035023;28;20041;-86
2022/05/13 05:14:33;;;;;;;14.60;9.40;;;;;;;13.11;nan;94976.69;5028160;28;20163;-87
2022/05/13 05:16:59;;;;;;;24.75;10.10;;;;;;;15.61;nan;95369.09;5051241;28;20034;-86
2022/05/13 05:19:28;;;;;;;21.67;9.50;;;;;;;15.92;nan;95406.69;5040761;28;20040;-85
2022/05/13 05:21:56;;;;;;;11.88;8.30;;;;;;;15.58;nan;95391.88;5054257;28;20129;-86
2022/05/13 05:24:27;;;;;;;16.23;7.25;;;;;;;16.00;nan;95396.06;5055669;28;20032;-88
2022/05/13 05:26:55;;;;;;;14.48;6.78;;;;;;;13.45;nan;94987.00;5039025;28;20551;-87
2022/05/13 05:29:27;;;;;;;12.93;6.63;;;;;;;13.51;nan;95033.75;5046211;28;20087;-86
2022/05/13 05:31:52;;;;;;;14.10;7.07;;;;;;;14.94;nan;95260.13;5072033;28;20065;-87
2022/05/13 05:34:18;;;;;;;15.52;6.93;;;;;;;15.95;nan;95395.34;5068682;28;20143;-86
2022/05/13 05:36:44;;;;;;;11.98;7.25;;;;;;;17.67;nan;95645.81;5056517;28;20036;-87
2022/05/13 05:39:12;;;;;;;16.45;6.85;;;;;;;16.39;nan;95421.41;5055181;28;20089;-87
2022/05/13 05:41:38;;;;;;;18.45;8.27;;;;;;;16.60;nan;95433.19;5067255;28;20040;-86
2022/05/13 05:44:04;;;;;;;24.80;9.32;;;;;;;14.83;nan;95153.81;5071147;28;20040;-87
2022/05/13 05:46:30;;;;;;;26.00;8.40;;;;;;;14.23;nan;95047.28;5067141;28;20050;-86
2022/05/13 05:48:56;;;;;;;21.20;9.48;;;;;;;14.48;nan;95126.03;5060321;28;20104;-85
2022/05/13 05:51:21;;;;;;;23.23;8.52;;;;;;;14.64;nan;95130.75;5053707;28;21149;-86
2022/05/13 05:59:15;;;;;;;24.10;10.43;;;;;;;17.68;nan;95623.25;5069572;28;20043;-86
2022/05/13 06:01:43;;;;;;;24.10;10.00;;;;;;;18.01;nan;95661.28;5047456;28;20032;-87
2022/05/13 06:04:11;;;;;;;28.75;10.70;;;;;;;16.33;nan;95442.09;5050872;28;20028;-87
2022/05/13 06:06:37;;;;;;;35.97;11.05;;;;;;;17.42;nan;95534.56;5049751;28;20189;-87
2022/05/13 06:09:02;;;;;;;37.72;11.45;;;;;;;16.69;nan;95438.63;5069098;28;21160;-86
2022/05/13 06:11:28;;;;;;;29.70;11.10;;;;;;;18.20;nan;95602.00;5050548;28;20571;-86
2022/05/13 06:13:55;;;;;;;20.77;10.43;;;;;;;18.05;nan;95608.59;5049294;28;20029;-85
2022/05/13 06:16:22;;;;;;;29.08;11.48;;;;;;;18.42;nan;95628.78;5051431;28;20098;-86
2022/05/13 06:18:49;;;;;;;27.40;10.80;;;;;;;15.27;nan;95153.88;5068021;28;20536;-86
2022/05/13 06:21:14;;;;;;;36.58;10.35;;;;;;;16.87;nan;95394.78;5062939;28;20094;-86
2022/05/13 06:23:40;;;;;;;24.48;10.88;;;;;;;17.50;nan;95498.97;5055413;28;20799;-85
2022/05/13 06:26:06;;;;;;;27.63;11.23;;;;;;;14.93;nan;95068.16;5048583;28;20207;-87
2022/05/13 06:28:31;;;;;;;28.63;11.80;;;;;;;17.03;nan;95398.63;5057997;28;20538;-86
2022/05/13 06:30:59;;;;;;;25.30;10.70;;;;;;;17.13;nan;95408.31;5057399;28;20075;-87
2022/05/13 06:33:28;;;;;;;47.90;11.05;;;;;;;14.74;nan;94990.13;5054778;28;20063;-87
2022/05/13 06:35:54;;;;;;;27.08;11.38;;;;;;;18.19;nan;95546.75;5051982;28;20403;-88
2022/05/13 06:38:22;;;;;;;25.15;10.50;;;;;;;15.05;nan;95065.72;5072416;28;20158;-86
2022/05/13 06:40:52;;;;;;;20.58;10.48;;;;;;;18.69;nan;95609.72;5054610;28;20044;-86
2022/05/13 06:43:22;;;;;;;43.30;11.95;;;;;;;17.91;nan;95487.16;5079332;28;20131;-86
2022/05/13 06:45:47;;;;;;;31.98;11.90;;;;;;;17.70;nan;95452.84;5057074;28;20572;-86
2022/05/13 06:48:16;;;;;;;22.65;11.20;;;;;;;18.23;nan;95553.09;5055767;28;20039;-87
2022/05/13 06:50:53;;;;;;;28.90;11.18;;;;;;;17.80;nan;95478.59;5059437;28;20071;-86
2022/05/13 06:53:20;;;;;;;30.20;12.27;;;;;;;16.93;nan;95300.59;5060680;28;20040;-86
2022/05/13 06:55:46;;;;;;;24.33;10.70;;;;;;;18.57;nan;95531.66;5068076;28;20162;-86
2022/05/13 06:58:13;;;;;;;25.73;10.52;;;;;;;16.83;nan;95230.44;5059628;28;20152;-87
2022/05/13 07:00:38;;;;;;;30.42;10.35;;;;;;;19.25;nan;95595.38;5054670;28;20490;-87
2022/05/13 07:03:04;;;;;;;29.08;11.32;;;;;;;18.92;nan;95534.38;5052936;28;20063;-87
2022/05/13 07:05:30;;;;;;;43.28;12.93;;;;;;;16.24;nan;95162.19;5066032;28;20361;-87
2022/05/13 07:07:58;;;;;;;29.10;11.63;;;;;;;16.76;nan;95200.66;5071961;28;20040;-88
2022/05/13 07:10:24;;;;;;;23.10;11.02;;;;;;;17.29;nan;95299.59;5052925;28;20086;-88
2022/05/13 07:12:53;;;;;;;22.55;11.27;;;;;;;19.33;nan;95579.53;5067359;28;20145;-89
2022/05/13 07:15:20;;;;;;;35.00;11.73;;;;;;;16.32;nan;95121.28;5078100;28;20052;-87
2022/05/13 07:17:45;;;;;;;31.55;10.43;;;;;;;15.07;nan;94968.19;5051456;28;20047;-87
2022/05/13 07:20:19;;;;;;;38.85;10.85;;;;;;;15.89;nan;95079.09;5067178;28;20417;-87
2022/05/13 07:22:44;;;;;;;39.58;11.70;;;;;;;16.67;nan;95200.63;5051951;28;20066;-87
2022/05/13 07:25:13;;;;;;;25.88;9.82;;;;;;;14.99;nan;94930.75;5053894;28;20037;-87
2022/05/13 07:27:39;;;;;;;27.30;11.13;;;;;;;16.91;nan;95186.81;5057984;28;20457;-87
2022/05/13 07:30:05;;;;;;;27.10;11.45;;;;;;;18.13;nan;95363.59;5054097;28;20051;-88
2022/05/13 07:32:31;;;;;;;17.92;9.52;;;;;;;16.38;nan;95086.03;5062836;28;20493;-87
2022/05/13 07:34:56;;;;;;;23.50;10.40;;;;;;;18.05;nan;95351.75;5049458;28;20052;-88
2022/05/13 07:37:23;;;;;;;23.65;10.43;;;;;;;17.48;nan;95238.41;5057280;28;20055;-88
2022/05/13 07:42:33;;;;;;;25.08;9.82;;;;;;;17.13;nan;95145.69;5069656;28;20102;-88
2022/05/13 07:44:59;;;;;;;26.15;9.18;;;;;;;19.74;nan;95547.50;5055125;28;20049;-88
2022/05/13 07:47:25;;;;;;;24.52;9.82;;;;;;;19.77;nan;95546.84;5080184;28;20040;-87
2022/05/13 07:50:00;;;;;;;23.27;9.77;;;;;;;17.01;nan;95135.63;5072090;28;20301;-89
2022/05/13 07:52:26;;;;;;;21.88;9.73;;;;;;;16.50;nan;95031.88;5066817;28;20267;-88
2022/05/13 07:55:21;;;;;;;24.00;11.23;;;;;;;16.40;nan;95008.88;5055312;28;20605;-88
2022/05/13 07:57:54;;;;;;;21.85;11.77;;;;;;;15.64;nan;94860.59;5048951;28;20478;-86
2022/05/13 08:00:32;;;;;;;20.60;10.82;;;;;;;16.16;nan;94979.13;5054343;28;20135;-88
2022/05/13 08:03:07;;;;;;;17.92;8.88;;;;;;;18.87;nan;95339.94;5050495;28;20745;-87
2022/05/13 08:05:52;;;;;;;18.33;8.95;;;;;;;17.92;nan;95213.19;5055731;28;20127;-88
2022/05/13 08:08:30;;;;;;;21.75;9.60;;;;;;;19.07;nan;95369.91;5056910;28;20040;-88
2022/05/13 08:11:00;;;;;;;22.13;8.77;;;;;;;19.09;nan;95355.03;5066048;28;20036;-87
2022/05/13 08:13:34;;;;;;;23.02;8.88;;;;;;;18.89;nan;95324.28;5054710;28;20128;-88
2022/05/13 08:16:06;;;;;;;22.83;9.00;;;;;;;16.61;nan;94950.19;5052735;28;20071;-87
2022/05/13 08:18:32;;;;;;;24.33;8.07;;;;;;;19.05;nan;95359.47;5072732;28;20246;-88
2022/05/13 08:20:57;;;;;;;19.40;8.68;;;;;;;18.65;nan;95251.53;5079056;28;20083;-88
2022/05/13 08:23:26;;;;;;;18.55;9.25;;;;;;;18.34;nan;95216.06;5054946;28;20047;-87
2022/05/13 08:28:41;;;;;;;24.60;8.15;;;;;;;19.28;nan;95333.13;5073971;28;20052;-86
2022/05/13 08:31:10;;;;;;;19.70;7.90;;;;;;;20.75;nan;95546.47;5071928;28;20044;-88
2022/05/13 08:33:36;;;;;;;27.70;8.60;;;;;;;17.30;nan;94979.53;5052294;28;20708;-87
2022/05/13 08:36:04;;;;;;;16.58;8.07;;;;;;;19.83;nan;95359.88;5058266;28;20040;-88
2022/05/13 08:38:38;;;;;;;14.93;7.47;;;;;;;17.86;nan;95041.94;5060220;28;20048;-88
2022/05/13 08:41:09;;;;;;;17.63;8.13;;;;;;;20.66;nan;95516.13;5071143;28;20211;-88
2022/05/13 08:43:37;;;;;;;16.88;7.82;;;;;;;20.84;nan;95530.25;5053673;28;20525;-87
2022/05/13 08:46:15;;;;;;;21.02;8.27;;;;;;;18.57;nan;95198.63;5049466;28;20538;-87
2022/05/13 08:49:18;;;;;;;25.38;8.20;;;;;;;21.00;nan;95523.13;5054890;28;20469;-87
2022/05/13 08:51:55;;;;;;;26.00;7.85;;;;;;;20.88;nan;95527.69;5044195;28;20044;-88
2022/05/13 08:54:30;;;;;;;15.70;6.70;;;;;;;16.43;nan;94809.41;5052263;28;20430;-88
2022/05/13 08:57:01;;;;;;;25.90;7.70;;;;;;;17.69;nan;95014.13;5054750;28;20287;-88
2022/05/13 08:59:41;;;;;;;17.80;6.55;;;;;;;19.21;nan;95226.09;5074615;28;20035;-87
2022/05/13 09:02:22;;;;;;;25.92;8.93;;;;;;;18.46;nan;95061.22;5075775;28;20093;-89
2022/05/13 09:05:16;;;;;;;23.40;7.40;;;;;;;19.53;nan;95246.13;5039541;28;20040;-87
2022/05/13 09:07:44;;;;;;;13.85;6.88;;;;;;;18.64;nan;95121.00;5058534;28;20056;-88
2022/05/13 09:10:10;;;;;;;31.13;6.68;;;;;;;20.33;nan;95324.81;5047701;28;20906;-88
2022/05/13 09:13:00;;;;;;;22.63;6.93;;;;;;;21.65;nan;95507.28;5050698;28;20628;-88
2022/05/13 09:15:28;;;;;;;18.42;7.22;;;;;;;21.75;nan;95496.81;5066648;28;20105;-88
2022/05/13 09:18:14;;;;;;;18.33;6.88;;;;;;;19.57;nan;95147.53;5068380;28;20055;-88
2022/05/13 09:21:00;;;;;;;22.25;7.32;;;;;;;17.55;nan;94847.25;5061431;28;20674;-88
2022/05/13 09:23:29;;;;;;;17.83;7.35;;;;;;;19.07;nan;95053.50;5066804;28;20239;-87
2022/05/13 09:25:58;;;;;;;14.20;7.50;;;;;;;21.60;nan;95423.81;5051685;28;20066;-88
2022/05/13 09:28:35;;;;;;;20.63;6.57;;;;;;;18.44;nan;94939.16;5050730;28;20469;-88
2022/05/13 09:31:24;;;;;;;26.13;6.45;;;;;;;20.86;nan;95271.16;5072359;28;20156;-88
2022/05/13 09:33:50;;;;;;;11.18;6.25;;;;;;;18.97;nan;94973.31;5033298;28;20040;-88
2022/05/13 09:36:26;;;;;;;14.65;5.57;;;;;;;22.32;nan;95466.22;5049762;28;20765;-88
2022/05/13 09:39:25;;;;;;;25.95;6.20;;;;;;;19.16;nan;94984.34;5055588;28;20040;-88
2022/05/13 09:41:52;;;;;;;11.38;4.65;;;;;;;21.07;nan;95250.25;5051709;28;20290;-88
2022/05/13 09:44:23;;;;;;;15.57;5.40;;;;;;;21.19;nan;95207.13;5066294;28;20201;-89
2022/05/13 09:47:07;;;;;;;16.67;8.20;;;;;;;20.38;nan;94944.03;5047651;28;20526;-88
2022/05/13 09:49:48;;;;;;;23.08;8.60;;;;;;;21.25;nan;94949.56;5048220;28;20105;-88
2022/05/13 09:52:17;;;;;;;12.90;6.40;;;;;;;24.57;nan;95268.28;5052944;28;20044;-88
2022/05/13 09:54:46;;;;;;;8.90;5.47;;;;;;;24.52;nan;95104.00;5045296;28;20462;-87
2022/05/13 09:57:23;;;;;;;16.77;6.25;;;;;;;24.90;nan;94991.03;5049735;28;20036;-88
2022/05/13 10:00:03;;;;;;;13.52;5.60;;;;;;;25.78;nan;94996.69;5047739;28;20147;-89
2022/05/13 10:02:29;;;;;;;15.60;5.47;;;;;;;29.39;nan;95414.75;5051404;28;20155;-88
2022/05/13 10:05:14;;;;;;;24.00;8.70;;;;;;;29.85;nan;95413.97;5059176;28;20148;-88
2022/05/13 10:08:17;;;;;;;51.08;29.45;;;;;;;30.10;nan;95279.97;5058593;28;20277;-88
2022/05/13 10:14:07;;;;;;;35.45;17.40;;;;;;;29.23;nan;94958.19;5029175;28;20094;-87
2022/05/13 10:16:40;;;;;;;160.25;107.07;;;;;;;31.46;nan;95210.28;5070649;28;20208;-88
2022/05/13 10:19:40;;;;;;;23.83;13.70;;;;;;;33.17;nan;95399.25;5044674;28;20430;-87
2022/05/13 10:22:24;;;;;;;7.57;4.18;;;;;;;31.75;nan;95158.69;5057242;28;20320;-86
2022/05/13 10:25:00;;;;;;;12.20;3.65;;;;;;;33.05;nan;95401.75;5046906;28;20426;-87
2022/05/13 10:27:40;;;;;;;10.80;3.45;;;;;;;33.15;nan;95385.13;5063468;28;20273;-88
2022/05/13 10:30:56;;;;;;;19.95;8.77;;;;;;;33.21;nan;95393.72;5050794;28;20033;-88
2022/05/13 10:34:09;;;;;;;;;;;;;;;;;;;;;
2022/05/13 10:36:41;;;;;;;15.13;6.18;;;;;;;31.18;nan;94978.50;5059163;28;20052;-87
2022/05/13 10:39:19;;;;;;;8.65;3.33;;;;;;;32.99;nan;95268.81;5061460;28;20040;-87
2022/05/13 10:41:56;;;;;;;9.75;3.70;;;;;;;31.04;nan;94990.38;5045657;28;20054;-87
2022/05/13 10:44:37;;;;;;;8.23;4.03;;;;;;;33.95;nan;95386.31;5062676;28;20676;-87
2022/05/13 10:47:07;;;;;;;;;;;;;;;33.95;nan;95391.81;5064973;28;20047;-87
2022/05/13 10:49:37;;;;;;;52.10;43.90;;;;;;;33.64;nan;95367.13;5069014;28;20806;-87
2022/05/13 10:52:05;;;;;;;22.77;17.50;;;;;;;33.96;nan;95380.38;5066609;28;20586;-87
2022/05/13 10:55:05;;;;;;;12.50;4.75;;;;;;;33.30;nan;95311.53;5050917;28;20040;-87
2022/05/13 10:58:02;;;;;;;5.13;3.78;;;;;;;33.67;nan;95365.53;5031105;28;20414;-87
2022/05/13 11:01:16;;;;;;;4.72;3.80;;;;;;;34.09;nan;95364.84;5017300;28;20597;-86
2022/05/13 11:04:01;;;;;;;6.93;3.42;;;;;;;34.06;nan;95362.91;5026905;28;20060;-87
2022/05/13 11:06:46;;;;;;;5.63;3.58;;;;;;;33.86;nan;95331.06;5051930;28;20050;-87
2022/05/13 11:09:18;;;;;;;8.50;3.42;;;;;;;34.28;nan;95343.28;5068137;28;20340;-87
2022/05/13 11:11:45;;;;;;;6.50;3.42;;;;;;;32.82;nan;95114.06;5065053;28;20494;-87
2022/05/13 11:14:37;;;;;;;11.73;4.60;;;;;;;32.80;nan;95117.25;5057219;28;20040;-87
2022/05/13 11:17:15;;;;;;;7.57;2.97;;;;;;;34.24;nan;95343.34;5073764;28;20205;-87
2022/05/13 11:19:57;;;;;;;8.15;3.55;;;;;;;33.46;nan;95267.69;5058642;28;20051;-87
2022/05/13 11:22:37;;;;;;;9.15;3.72;;;;;;;32.80;nan;95094.53;5059485;28;20051;-87
2022/05/13 11:28:04;;;;;;;6.93;3.42;;;;;;;33.52;nan;95226.72;5073911;28;20082;-87
2022/05/13 11:30:54;;;;;;;10.13;4.22;;;;;;;34.16;nan;95322.63;5053179;28;20048;-87
2022/05/13 11:33:42;;;;;;;7.45;3.63;;;;;;;34.30;nan;95316.88;5073610;28;20140;-86
2022/05/13 11:36:13;;;;;;;8.95;3.38;;;;;;;34.39;nan;95316.31;5075935;28;20036;-87
2022/05/13 11:39:19;;;;;;;9.00;3.63;;;;;;;34.43;nan;95308.75;5078541;28;20044;-87
2022/05/13 11:41:56;;;;;;;12.50;3.10;;;;;;;34.84;nan;95300.84;5058908;28;20536;-86
2022/05/13 11:44:51;;;;;;;11.60;3.42;;;;;;;34.32;nan;95242.16;5054317;28;20047;-87
2022/05/13 11:47:42;;;;;;;7.22;3.60;;;;;;;34.59;nan;95262.00;5055991;28;20040;-86
2022/05/13 11:50:07;;;;;;;10.82;3.40;;;;;;;33.95;nan;95274.28;5056434;28;20457;-87
2022/05/13 11:52:41;;;;;;;4.47;2.95;;;;;;;34.74;nan;95299.09;5057788;28;20043;-86
2022/05/13 11:55:48;;;;;;;10.45;3.30;;;;;;;34.42;nan;95304.44;5054641;28;20143;-88
2022/05/13 11:58:51;;;;;;;7.63;2.95;;;;;;;33.54;nan;95238.09;5073373;28;20051;-88
2022/05/13 12:01:46;;;;;;;5.35;2.70;;;;;;;31.26;nan;94902.47;5070560;28;20117;-87
2022/05/13 12:04:21;;;;;;;7.00;3.13;;;;;;;33.88;nan;95281.88;5027769;28;20061;-87
2022/05/13 12:06:49;;;;;;;11.65;3.38;;;;;;;34.07;nan;95275.63;5077585;28;20105;-86
2022/05/13 12:09:44;;;;;;;6.93;4.57;;;;;;;33.10;nan;95118.31;5055113;28;20098;-86
2022/05/13 12:12:42;;;;;;;13.70;3.33;;;;;;;34.58;nan;95268.72;5065318;28;20052;-87
2022/05/13 12:15:22;;;;;;;5.07;2.95;;;;;;;34.29;nan;95268.53;5023953;28;20040;-87
2022/05/13 12:18:06;;;;;;;4.70;3.30;;;;;;;34.93;nan;95241.63;5053027;28;20092;-87
2022/05/13 12:20:55;;;;;;;6.18;2.90;;;;;;;34.38;nan;95251.44;5061636;28;20044;-88
2022/05/13 12:23:35;;;;;;;8.38;2.72;;;;;;;32.24;nan;94846.50;5057377;28;20036;-86
2022/05/13 12:26:10;;;;;;;13.75;3.20;;;;;;;34.97;nan;95243.06;5052924;28;20256;-87
2022/05/13 12:28:56;;;;;;;7.97;2.78;;;;;;;34.81;nan;95238.31;5072818;28;20646;-86
2022/05/13 12:31:21;;;;;;;20.80;3.28;;;;;;;34.44;nan;95219.44;5074258;28;20499;-87